Time;durP1;ratioP1;P1;durP2;ratioP2;P2;SDS_P1;SDS_P2;PMS_P1;PMS_P2;Temp;Humidity;BMP_temperature;BMP_pressure;BME280_temperature;BME280_humidity;BME280_pressure;Samples;Min_cycle;Max_cycle;Signal;HPM_P1;HPM_P2
2022/12/14 00:01:44;;;;;;;;;;;;;;;18.40;38.07;100115.78;5129998;27;19931;-56
2022/12/14 00:04:14;;;;;;;;;;;;;;;18.40;38.07;100110.28;5130632;27;19923;-56
2022/12/14 00:06:40;;;;;;;;;;;;;;;18.40;37.89;100102.00;5168147;27;19930;-56
2022/12/14 00:09:05;;;;;;;;;;;;;;;18.40;37.91;100090.97;5153607;27;20298;-56
2022/12/14 00:11:32;;;;;;;;;;;;;;;18.40;37.86;100076.38;5150383;27;19927;-56
2022/12/14 00:13:58;;;;;;;;;;;;;;;18.39;37.99;100078.28;5150646;27;20420;-56
2022/12/14 00:16:25;;;;;;;;;;;;;;;18.40;38.05;100081.88;5132669;27;19966;-56
2022/12/14 00:18:52;;;;;;;;;;;;;;;18.39;38.06;100078.28;5130625;27;19927;-55
2022/12/14 00:21:17;;;;;;;;;;;;;;;18.40;37.90;100074.44;5131402;27;19927;-56
2022/12/14 00:23:43;;;;;;;;;;;;;;;18.39;37.88;100075.53;5131796;27;20017;-56
2022/12/14 00:26:11;;;;;;;;;;;;;;;18.38;37.92;100079.41;5150604;27;19927;-55
2022/12/14 00:28:37;;;;;;;;;;;;;;;18.39;38.07;100064.50;5149747;27;19977;-55
2022/12/14 00:31:02;;;;;;;;;;;;;;;18.39;37.85;100072.78;5148794;27;19927;-56
2022/12/14 00:33:28;;;;;;;;;;;;;;;18.39;38.06;100074.72;5151178;27;20256;-56
2022/12/14 00:35:54;;;;;;;;;;;;;;;18.39;38.05;100064.50;5132345;27;20426;-56
2022/12/14 00:38:19;;;;;;;;;;;;;;;18.39;37.87;100063.69;5149817;27;19930;-56
2022/12/14 00:40:45;;;;;;;;;;;;;;;18.39;38.11;100058.16;5141445;27;20346;-56
2022/12/14 00:43:10;;;;;;;;;;;;;;;18.37;37.90;100058.47;5129802;28;19954;-56
2022/12/14 00:45:36;;;;;;;;;;;;;;;18.39;38.10;100063.69;5130153;28;19932;-56
2022/12/14 00:48:02;;;;;;;;;;;;;;;18.38;38.11;100046.31;5136089;27;19923;-56
2022/12/14 00:50:27;;;;;;;;;;;;;;;18.37;37.80;100052.97;5149600;27;19923;-56
2022/12/14 00:52:53;;;;;;;;;;;;;;;18.38;37.80;100045.50;5150509;27;19927;-56
2022/12/14 00:55:18;;;;;;;;;;;;;;;18.37;37.88;100055.72;5150056;27;20334;-56
2022/12/14 00:57:44;;;;;;;;;;;;;;;18.38;37.91;100042.75;5149971;27;19923;-55
2022/12/14 01:00:10;;;;;;;;;;;;;;;18.37;38.01;100043.88;5146471;27;19927;-56
2022/12/14 01:02:35;;;;;;;;;;;;;;;18.38;38.14;100042.75;5129828;28;19962;-56
2022/12/14 01:05:01;;;;;;;;;;;;;;;18.37;37.99;100036.44;5138488;27;19934;-56
2022/12/14 01:07:26;;;;;;;;;;;;;;;18.37;37.99;100035.59;5166727;27;19946;-56
2022/12/14 01:09:52;;;;;;;;;;;;;;;18.36;37.95;100031.22;5149155;27;19930;-56
2022/12/14 01:12:18;;;;;;;;;;;;;;;18.36;37.84;100032.03;5129143;28;19930;-55
2022/12/14 01:14:45;;;;;;;;;;;;;;;18.36;38.09;100023.78;5129404;28;20247;-56
2022/12/14 01:17:10;;;;;;;;;;;;;;;18.36;37.98;100029.28;5129104;28;19966;-56
2022/12/14 01:19:36;;;;;;;;;;;;;;;18.36;38.15;100023.78;5147290;27;19931;-56
2022/12/14 01:22:01;;;;;;;;;;;;;;;18.36;37.86;100009.97;5149214;27;19923;-54
2022/12/14 01:24:27;;;;;;;;;;;;;;;18.37;37.97;100005.28;5149932;27;19959;-55
2022/12/14 01:26:52;;;;;;;;;;;;;;;18.35;38.09;99994.56;5149793;27;19999;-56
2022/12/14 01:29:18;;;;;;;;;;;;;;;18.36;37.84;99992.63;5130164;27;20371;-56
2022/12/14 01:31:44;;;;;;;;;;;;;;;18.36;37.86;99992.63;5148783;27;19923;-56
2022/12/14 01:34:13;;;;;;;;;;;;;;;18.36;38.00;100000.91;5149942;27;19927;-52
2022/12/14 01:36:39;;;;;;;;;;;;;;;18.36;38.06;100003.66;5150117;27;19973;-56
2022/12/14 01:39:06;;;;;;;;;;;;;;;18.36;38.10;100004.47;5148815;27;20363;-56
2022/12/14 01:41:33;;;;;;;;;;;;;;;18.36;38.07;100004.47;5116137;28;19963;-56
2022/12/14 01:44:00;;;;;;;;;;;;;;;18.36;37.89;100001.72;5129105;28;19968;-56
2022/12/14 01:46:28;;;;;;;;;;;;;;;18.35;38.08;99991.81;5128822;28;20026;-56
2022/12/14 01:48:58;;;;;;;;;;;;;;;18.35;38.11;99983.53;5140245;27;20363;-56
2022/12/14 01:51:23;;;;;;;;;;;;;;;18.36;38.09;99974.16;5149017;27;20247;-56
2022/12/14 01:53:49;;;;;;;;;;;;;;;18.36;37.84;99971.41;5150017;27;19923;-56
2022/12/14 01:56:14;;;;;;;;;;;;;;;18.35;37.96;99971.66;5149390;27;19927;-56
2022/12/14 01:58:40;;;;;;;;;;;;;;;18.34;38.11;99959.84;5148839;27;19946;-55
2022/12/14 02:01:05;;;;;;;;;;;;;;;18.35;37.91;99955.13;5137669;27;19927;-56
2022/12/14 02:03:32;;;;;;;;;;;;;;;18.34;38.05;99957.06;5133306;27;20096;-55
2022/12/14 02:05:59;;;;;;;;;;;;;;;18.35;38.04;99946.88;5131123;27;20324;-56
2022/12/14 02:08:25;;;;;;;;;;;;;;;18.34;38.01;99948.00;5130120;27;19991;-56
2022/12/14 02:10:51;;;;;;;;;;;;;;;18.35;38.02;99949.63;5148582;27;20026;-56
2022/12/14 02:13:17;;;;;;;;;;;;;;;18.34;38.10;99953.50;5149183;27;19927;-56
2022/12/14 02:15:43;;;;;;;;;;;;;;;18.35;38.12;99946.88;5149234;27;20378;-56
2022/12/14 02:18:10;;;;;;;;;;;;;;;18.34;38.11;99950.75;5148465;27;20398;-57
2022/12/14 02:20:38;;;;;;;;;;;;;;;18.35;38.12;99946.88;5141848;27;19977;-55
2022/12/14 02:23:24;;;;;;;;;;;;;;;18.34;37.85;99950.75;5110044;28;20454;-55
2022/12/14 02:25:56;;;;;;;;;;;;;;;18.34;38.09;99950.75;5113218;28;19981;-56
2022/12/14 02:28:26;;;;;;;;;;;;;;;18.33;37.90;99949.94;5134072;27;20014;-56
2022/12/14 02:30:54;;;;;;;;;;;;;;;18.34;38.11;99953.50;5147873;27;19981;-56
2022/12/14 02:33:23;;;;;;;;;;;;;;;18.33;38.01;99944.41;5148774;27;19930;-56
2022/12/14 02:35:52;;;;;;;;;;;;;;;18.33;38.10;99941.66;5149342;27;19992;-55
2022/12/14 02:38:24;;;;;;;;;;;;;;;18.33;38.19;99938.91;5125812;27;19950;-56
2022/12/14 02:41:09;;;;;;;;;;;;;;;18.33;38.09;99932.56;5147708;27;20085;-56
2022/12/14 02:43:42;;;;;;;;;;;;;;;18.32;38.11;99931.75;5133362;27;19981;-58
2022/12/14 02:46:28;;;;;;;;;;;;;;;18.33;37.79;99925.13;5149112;27;20389;-56
2022/12/14 02:49:14;;;;;;;;;;;;;;;18.32;38.12;99929.00;5132739;27;20359;-56
2022/12/14 02:51:43;;;;;;;;;;;;;;;18.32;37.91;99922.69;5132624;27;20005;-55
2022/12/14 02:54:11;;;;;;;;;;;;;;;18.33;37.91;99913.28;5150614;27;19958;-57
2022/12/14 02:56:38;;;;;;;;;;;;;;;18.32;37.97;99904.19;5152070;27;20426;-56
2022/12/14 02:59:05;;;;;;;;;;;;;;;18.32;38.11;99900.63;5132985;27;20010;-56
2022/12/14 03:01:30;;;;;;;;;;;;;;;18.32;37.89;99897.88;5118764;28;20362;-56
2022/12/14 03:03:56;;;;;;;;;;;;;;;18.32;38.06;99903.38;5139988;27;19927;-56
2022/12/14 03:06:26;;;;;;;;;;;;;;;18.32;37.83;99889.59;5151421;27;19923;-55
2022/12/14 03:09:00;;;;;;;;;;;;;;;18.30;38.13;99882.44;5128683;27;20291;-56
2022/12/14 03:11:27;;;;;;;;;;;;;;;18.31;38.10;99880.53;5151364;27;19923;-56
2022/12/14 03:13:54;;;;;;;;;;;;;;;18.32;37.94;99875.81;5133762;27;19954;-57
2022/12/14 03:16:21;;;;;;;;;;;;;;;18.32;38.12;99882.16;5152124;27;20356;-55
2022/12/14 03:18:50;;;;;;;;;;;;;;;18.31;38.06;99886.03;5151154;27;20107;-56
2022/12/14 03:21:19;;;;;;;;;;;;;;;18.30;37.92;99884.38;5132209;27;19970;-56
2022/12/14 03:23:47;;;;;;;;;;;;;;;18.32;37.96;99889.59;5133447;27;19973;-56
2022/12/14 03:26:14;;;;;;;;;;;;;;;18.32;38.11;99886.84;5151572;27;20014;-56
2022/12/14 03:28:43;;;;;;;;;;;;;;;18.32;38.13;99878.56;5151075;27;19954;-56
2022/12/14 03:31:10;;;;;;;;;;;;;;;18.30;38.04;99887.94;5139356;27;19923;-56
2022/12/14 03:33:36;;;;;;;;;;;;;;;18.31;38.02;99891.53;5130749;28;20383;-56
2022/12/14 03:36:06;;;;;;;;;;;;;;;18.30;37.90;99882.44;5147697;27;19930;-56
2022/12/14 03:38:34;;;;;;;;;;;;;;;18.30;38.16;99887.13;5150062;27;20404;-56
2022/12/14 03:41:19;;;;;;;;;;;;;;;18.30;38.04;99881.63;5131545;27;20100;-56
2022/12/14 03:43:56;;;;;;;;;;;;;;;18.30;37.84;99884.38;5133201;27;20017;-57
2022/12/14 03:46:30;;;;;;;;;;;;;;;18.31;37.94;99886.03;5132789;27;19974;-56
2022/12/14 03:48:59;;;;;;;;;;;;;;;18.29;37.88;99893.75;5131775;27;19969;-56
2022/12/14 03:51:43;;;;;;;;;;;;;;;18.30;38.06;99898.97;5150908;27;19966;-56
2022/12/14 03:54:11;;;;;;;;;;;;;;;18.30;37.95;99896.22;5151346;27;19962;-56
2022/12/14 03:56:39;;;;;;;;;;;;;;;18.30;37.85;99892.63;5132645;27;20013;-56
2022/12/14 03:59:25;;;;;;;;;;;;;;;18.29;37.88;99889.06;5150349;27;20266;-56
2022/12/14 04:01:54;;;;;;;;;;;;;;;18.30;37.96;99887.13;5117806;28;20478;-55
2022/12/14 04:04:22;;;;;;;;;;;;;;;18.28;38.08;99881.94;5154278;27;19926;-56
2022/12/14 04:06:53;;;;;;;;;;;;;;;18.29;37.86;99886.31;5171848;27;19962;-55
2022/12/14 04:09:21;;;;;;;;;;;;;;;18.29;38.11;99888.25;5146389;27;19962;-56
2022/12/14 04:20:11;;;;;;;;;;;;;;;18.28;37.87;99872.84;5114818;27;19962;-56
2022/12/14 04:22:37;;;;;;;;;;;;;;;18.28;38.08;99867.31;5130130;28;20023;-56
2022/12/14 04:27:50;;;;;;;;;;;;;;;18.28;37.89;99859.88;5100056;27;20424;-56
2022/12/14 04:30:16;;;;;;;;;;;;;;;18.28;37.88;99856.31;5125443;27;19973;-56
2022/12/14 04:32:44;;;;;;;;;;;;;;;18.28;37.89;99861.81;5129923;28;19923;-56
2022/12/14 04:35:14;;;;;;;;;;;;;;;18.28;38.06;99856.31;5130836;27;20283;-56
2022/12/14 04:37:40;;;;;;;;;;;;;;;18.29;37.94;99857.94;5128196;28;20037;-56
2022/12/14 04:40:07;;;;;;;;;;;;;;;18.27;38.00;99852.72;5144067;27;19970;-56
2022/12/14 04:42:33;;;;;;;;;;;;;;;18.28;37.85;99850.78;5111161;28;20278;-56
2022/12/14 04:45:00;;;;;;;;;;;;;;;18.27;37.80;99844.47;5129576;28;19930;-56
2022/12/14 04:47:28;;;;;;;;;;;;;;;18.28;37.95;99845.28;5129895;27;19987;-56
2022/12/14 04:49:56;;;;;;;;;;;;;;;18.28;37.94;99842.53;5143594;27;19958;-56
2022/12/14 04:52:24;;;;;;;;;;;;;;;18.27;37.82;99835.38;5111044;28;20006;-56
2022/12/14 04:54:58;;;;;;;;;;;;;;;18.27;37.99;99835.38;5129301;28;20359;-56
2022/12/14 04:57:28;;;;;;;;;;;;;;;18.27;37.99;99835.38;5111197;27;19979;-56
2022/12/14 04:59:54;;;;;;;;;;;;;;;18.27;38.08;99832.63;5142916;27;20014;-56
2022/12/14 05:02:32;;;;;;;;;;;;;;;18.27;37.88;99827.13;5149891;27;20324;-56
2022/12/14 05:05:03;;;;;;;;;;;;;;;18.27;37.97;99829.88;5161091;27;19934;-54
2022/12/14 05:07:32;;;;;;;;;;;;;;;18.26;38.05;99833.72;5147211;27;19967;-55
2022/12/14 05:10:03;;;;;;;;;;;;;;;18.26;38.05;99825.47;5143551;27;19954;-56
2022/12/14 05:15:14;;;;;;;;;;;;;;;18.26;37.82;99817.19;5188661;27;20017;-53
2022/12/14 05:17:40;;;;;;;;;;;;;;;18.26;38.09;99814.44;5186773;27;19969;-54
2022/12/14 05:20:12;;;;;;;;;;;;;;;18.26;38.16;99803.41;5166021;27;20287;-54
2022/12/14 05:22:37;;;;;;;;;;;;;;;18.25;38.09;99805.34;5148109;27;20407;-54
2022/12/14 05:25:03;;;;;;;;;;;;;;;18.26;37.91;99795.13;5166471;27;19923;-53
2022/12/14 05:27:29;;;;;;;;;;;;;;;18.25;37.87;99786.06;5167038;27;20283;-53
2022/12/14 05:29:55;;;;;;;;;;;;;;;18.26;37.99;99795.13;5179336;27;19953;-53
2022/12/14 05:32:20;;;;;;;;;;;;;;;18.25;38.09;99788.00;5166784;27;19945;-54
2022/12/14 05:34:46;;;;;;;;;;;;;;;18.25;38.07;99779.72;5173075;27;19926;-53
2022/12/14 05:37:11;;;;;;;;;;;;;;;18.24;38.03;99778.09;5188126;27;20013;-53
2022/12/14 05:39:43;;;;;;;;;;;;;;;18.24;37.94;99773.41;5186944;27;20425;-53
2022/12/14 05:42:09;;;;;;;;;;;;;;;18.25;37.96;99774.22;5181618;27;19974;-54
2022/12/14 05:44:34;;;;;;;;;;;;;;;18.24;38.08;99776.16;5184997;27;19953;-52
2022/12/14 05:47:00;;;;;;;;;;;;;;;18.25;37.89;99779.72;5181424;27;19923;-53
2022/12/14 05:49:25;;;;;;;;;;;;;;;18.24;38.03;99775.34;5177578;27;20453;-54
2022/12/14 05:51:51;;;;;;;;;;;;;;;18.24;37.96;99770.66;5170443;27;19923;-53
2022/12/14 05:54:16;;;;;;;;;;;;;;;18.24;37.87;99767.91;5178563;27;19923;-54
2022/12/14 05:56:42;;;;;;;;;;;;;;;18.24;37.91;99770.66;5172492;27;20406;-53
2022/12/14 05:59:07;;;;;;;;;;;;;;;18.24;38.01;99773.41;5178171;27;19922;-53
2022/12/14 06:01:33;;;;;;;;;;;;;;;18.24;38.09;99764.31;5176717;27;19923;-54
2022/12/14 06:03:59;;;;;;;;;;;;;;;18.24;37.92;99767.09;5174483;27;19923;-54
2022/12/14 06:06:24;;;;;;;;;;;;;;;18.24;38.06;99764.31;5171851;27;19941;-52
2022/12/14 06:08:50;;;;;;;;;;;;;;;18.24;37.85;99764.31;5170745;27;19927;-53
2022/12/14 06:11:16;;;;;;;;;;;;;;;18.24;37.97;99773.41;5169602;27;19923;-52
2022/12/14 06:13:42;;;;;;;;;;;;;;;18.24;37.87;99770.66;5184707;27;20010;-53
2022/12/14 06:16:11;;;;;;;;;;;;;;;18.24;38.29;99772.59;5184924;27;20312;-53
2022/12/14 06:18:53;;;;;;;;;;;;;;;18.23;38.03;99765.44;5184944;27;19930;-53
2022/12/14 06:21:19;;;;;;;;;;;;;;;18.23;38.06;99759.94;5157143;27;20417;-53
2022/12/14 06:23:45;;;;;;;;;;;;;;;18.17;35.38;99761.94;5159439;27;19958;-60
2022/12/14 06:26:11;;;;;;;;;;;;;;;18.22;37.66;99758.28;5164613;27;19983;-53
2022/12/14 06:28:36;;;;;;;;;;;;;;;18.23;38.08;99759.94;5163409;27;19938;-53
2022/12/14 06:31:02;;;;;;;;;;;;;;;18.24;38.22;99756.88;5148539;27;19931;-53
2022/12/14 06:33:27;;;;;;;;;;;;;;;18.24;38.15;99756.88;5147688;27;20005;-53
2022/12/14 06:35:53;;;;;;;;;;;;;;;18.27;38.18;99772.00;5163013;27;19930;-52
2022/12/14 06:38:19;;;;;;;;;;;;;;;18.28;37.29;99766.16;5159371;27;19927;-58
2022/12/14 06:40:45;;;;;;;;;;;;;;;18.33;37.21;99770.78;5160715;27;19949;-50
2022/12/14 06:43:10;;;;;;;;;;;;;;;18.33;37.78;99767.19;5161455;27;19923;-53
2022/12/14 06:45:36;;;;;;;;;;;;;;;18.32;36.72;99766.38;5171384;27;19922;-59
2022/12/14 06:48:01;;;;;;;;;;;;;;;18.34;37.87;99757.81;5169414;27;19947;-54
2022/12/14 06:50:27;;;;;;;;;;;;;;;18.33;38.16;99751.47;5152817;27;19922;-54
2022/12/14 06:52:54;;;;;;;;;;;;;;;18.32;38.35;99749.03;5149665;27;20286;-55
2022/12/14 06:55:20;;;;;;;;;;;;;;;18.32;38.40;99747.09;5149943;27;19971;-53
2022/12/14 06:57:46;;;;;;;;;;;;;;;18.32;38.40;99747.09;5145090;27;19934;-54
2022/12/14 07:00:12;;;;;;;;;;;;;;;18.32;38.44;99747.09;5151643;27;19927;-54
2022/12/14 07:02:37;;;;;;;;;;;;;;;18.32;38.11;99747.09;5148507;27;19934;-54
2022/12/14 07:05:04;;;;;;;;;;;;;;;18.33;38.39;99750.66;5148388;27;19977;-54
2022/12/14 07:07:31;;;;;;;;;;;;;;;18.33;38.16;99750.66;5157633;27;19930;-54
2022/12/14 07:09:57;;;;;;;;;;;;;;;18.32;38.38;99747.09;5150886;27;20022;-55
2022/12/14 07:12:22;;;;;;;;;;;;;;;18.33;38.18;99748.72;5164365;27;19923;-54
2022/12/14 07:14:48;;;;;;;;;;;;;;;18.34;38.14;99749.53;5135389;27;19923;-54
2022/12/14 07:17:13;;;;;;;;;;;;;;;18.33;38.34;99742.41;5154955;27;19953;-54
2022/12/14 07:19:39;;;;;;;;;;;;;;;18.33;38.11;99748.72;5167029;27;19931;-54
2022/12/14 07:22:05;;;;;;;;;;;;;;;18.34;38.26;99747.59;5160321;27;19931;-55
2022/12/14 07:24:30;;;;;;;;;;;;;;;18.34;38.29;99747.59;5154541;27;20035;-54
2022/12/14 07:26:56;;;;;;;;;;;;;;;18.34;38.35;99733.81;5157873;27;19933;-55
2022/12/14 07:29:21;;;;;;;;;;;;;;;18.36;38.08;99747.31;5163401;27;19927;-54
2022/12/14 07:31:47;;;;;;;;;;;;;;;18.36;38.37;99745.38;5155875;27;19946;-54
2022/12/14 07:34:15;;;;;;;;;;;;;;;18.37;38.15;99747.00;5158291;27;19923;-54
2022/12/14 07:36:42;;;;;;;;;;;;;;;18.37;38.37;99752.50;5159689;27;19945;-54
2022/12/14 07:39:09;;;;;;;;;;;;;;;18.37;38.16;99758.03;5159288;27;20017;-54
2022/12/14 07:41:34;;;;;;;;;;;;;;;18.38;38.19;99751.38;5155603;27;19977;-54
2022/12/14 07:44:00;;;;;;;;;;;;;;;18.39;38.11;99752.19;5156925;27;20286;-54
2022/12/14 07:46:26;;;;;;;;;;;;;;;18.39;38.29;99757.72;5153106;27;19926;-54
2022/12/14 07:48:53;;;;;;;;;;;;;;;18.39;38.22;99764.03;5131195;27;19933;-54
2022/12/14 07:51:20;;;;;;;;;;;;;;;18.39;38.13;99758.53;5144278;27;19964;-55
2022/12/14 07:57:22;;;;;;;;;;;;;;;18.38;38.31;99753.31;5143906;27;20036;-53
2022/12/14 07:59:48;;;;;;;;;;;;;;;18.40;38.33;99757.44;5136651;27;20382;-54
2022/12/14 08:02:20;;;;;;;;;;;;;;;18.39;38.36;99755.75;5149890;27;20390;-54
2022/12/14 08:04:46;;;;;;;;;;;;;;;18.39;38.04;99766.78;5137026;27;19931;-52
2022/12/14 08:07:12;;;;;;;;;;;;;;;18.39;38.17;99766.78;5136535;27;19962;-54
2022/12/14 08:09:37;;;;;;;;;;;;;;;18.39;38.15;99761.28;5133439;27;19930;-54
2022/12/14 08:12:03;;;;;;;;;;;;;;;18.39;38.29;99768.72;5135516;27;20382;-54
2022/12/14 08:14:28;;;;;;;;;;;;;;;18.39;38.07;99765.97;5140044;27;19933;-54
2022/12/14 08:16:54;;;;;;;;;;;;;;;18.37;38.13;99766.28;5146528;27;19926;-54
2022/12/14 08:19:20;;;;;;;;;;;;;;;18.37;38.14;99766.28;5140455;27;20236;-54
2022/12/14 08:21:45;;;;;;;;;;;;;;;18.38;38.51;99767.09;5146158;27;19938;-55
2022/12/14 08:24:11;;;;;;;;;;;;;;;18.37;38.10;99769.03;5155264;27;19937;-55
2022/12/14 08:26:37;;;;;;;;;;;;;;;18.37;38.10;99769.03;5132941;27;20451;-54
2022/12/14 08:29:03;;;;;;;;;;;;;;;18.37;38.37;99773.75;5151214;27;19927;-55
2022/12/14 08:31:28;;;;;;;;;;;;;;;18.36;38.07;99775.69;5139108;27;19965;-54
2022/12/14 08:33:54;;;;;;;;;;;;;;;18.36;38.26;99777.63;5154693;27;19926;-54
2022/12/14 08:36:21;;;;;;;;;;;;;;;18.36;38.36;99775.69;5157682;27;20431;-54
2022/12/14 08:38:54;;;;;;;;;;;;;;;18.36;38.14;99767.41;5129088;27;19971;-55
2022/12/14 08:41:20;;;;;;;;;;;;;;;18.35;38.10;99774.06;5137323;27;19962;-55
2022/12/14 08:43:47;;;;;;;;;;;;;;;18.36;38.36;99783.13;5153642;27;19937;-54
2022/12/14 08:46:13;;;;;;;;;;;;;;;18.35;38.18;99771.31;5155970;27;20009;-57
2022/12/14 08:48:38;;;;;;;;;;;;;;;18.36;38.12;99780.38;5160545;27;19923;-57
2022/12/14 08:51:06;;;;;;;;;;;;;;;18.35;38.18;99770.47;5150057;27;19938;-57
2022/12/14 08:53:31;;;;;;;;;;;;;;;18.35;38.41;99771.31;5149090;27;19930;-56
2022/12/14 08:55:58;;;;;;;;;;;;;;;18.35;38.49;99787.84;5148115;27;19923;-56
2022/12/14 08:58:23;;;;;;;;;;;;;;;18.30;36.30;99787.91;5148536;27;20362;-57
2022/12/14 09:00:49;;;;;;;;;;;;;;;18.36;37.99;99780.38;5148582;27;20004;-56
2022/12/14 09:03:15;;;;;;;;;;;;;;;18.37;38.02;99782.00;5154083;27;19935;-57
2022/12/14 09:05:41;;;;;;;;;;;;;;;18.41;37.82;99783.03;5157861;27;19938;-57
2022/12/14 09:08:06;;;;;;;;;;;;;;;18.39;38.02;99779.75;5144373;27;19927;-57
2022/12/14 09:10:32;;;;;;;;;;;;;;;18.37;38.18;99785.59;5147974;27;20271;-56
2022/12/14 09:12:57;;;;;;;;;;;;;;;18.38;38.11;99786.41;5142868;27;19931;-57
2022/12/14 09:15:23;;;;;;;;;;;;;;;18.38;38.23;99787.22;5150300;27;19998;-57
2022/12/14 09:17:49;;;;;;;;;;;;;;;18.38;38.09;99789.16;5150273;27;20386;-58
2022/12/14 09:20:15;;;;;;;;;;;;;;;18.39;38.13;99785.28;5144546;27;19985;-55
2022/12/14 09:22:40;;;;;;;;;;;;;;;18.39;38.42;99786.09;5128668;27;20341;-57
2022/12/14 09:25:07;;;;;;;;;;;;;;;18.39;38.36;99780.56;5150253;27;19923;-58
2022/12/14 09:27:33;;;;;;;;;;;;;;;18.40;38.06;99790.50;5149961;27;20405;-57
2022/12/14 09:29:58;;;;;;;;;;;;;;;18.39;38.32;99797.13;5150402;27;19922;-58
2022/12/14 09:32:24;;;;;;;;;;;;;;;18.39;37.47;99797.13;5125617;27;19923;-57
2022/12/14 09:34:49;;;;;;;;;;;;;;;18.40;38.33;99790.50;5145737;27;19949;-57
2022/12/14 09:37:15;;;;;;;;;;;;;;;18.41;38.09;99799.59;5148006;27;20336;-58
2022/12/14 09:39:40;;;;;;;;;;;;;;;18.40;38.11;99796.00;5147599;27;19923;-57
2022/12/14 09:44:47;;;;;;;;;;;;;;;18.41;38.06;99799.59;5166333;27;20400;-55
2022/12/14 09:47:15;;;;;;;;;;;;;;;18.42;38.09;99798.47;5159932;27;20000;-54
2022/12/14 09:49:45;;;;;;;;;;;;;;;18.42;38.13;99798.47;5167582;27;20951;-54
2022/12/14 09:52:14;;;;;;;;;;;;;;;18.43;38.12;99795.38;5160841;27;19930;-54
2022/12/14 09:54:40;;;;;;;;;;;;;;;18.43;38.27;99791.81;5155125;27;19970;-54
2022/12/14 09:57:08;;;;;;;;;;;;;;;18.43;38.17;99795.38;5141070;27;19931;-55
2022/12/14 09:59:33;;;;;;;;;;;;;;;18.44;38.12;99801.75;5135339;27;19969;-54
2022/12/14 10:02:04;;;;;;;;;;;;;;;18.43;38.03;99792.63;5166582;27;19931;-55
2022/12/14 10:05:00;;;;;;;;;;;;;;;18.44;38.00;99791.53;5129507;27;20422;-55
2022/12/14 10:10:03;;;;;;;;;;;;;;;18.48;38.03;99798.06;5170948;27;19929;-54
2022/12/14 10:12:48;;;;;;;;;;;;;;;18.47;38.10;99804.69;5152064;27;19937;-54
2022/12/14 10:15:17;;;;;;;;;;;;;;;18.48;38.24;99805.50;5151698;27;20379;-54
2022/12/14 10:20:36;;;;;;;;;;;;;;;18.48;38.10;99797.22;5146751;27;19926;-54
2022/12/14 10:23:01;;;;;;;;;;;;;;;18.47;38.03;99799.19;5111164;27;19938;-54
2022/12/14 10:25:28;;;;;;;;;;;;;;;18.47;38.20;99796.41;5125995;27;19989;-54
2022/12/14 10:27:55;;;;;;;;;;;;;;;18.48;38.33;99783.44;5111304;27;20287;-54
2022/12/14 10:30:37;;;;;;;;;;;;;;;18.47;38.16;99793.66;5115530;27;19931;-54
2022/12/14 10:33:14;;;;;;;;;;;;;;;18.47;38.18;99793.66;5138188;27;19931;-54
2022/12/14 10:35:48;;;;;;;;;;;;;;;18.48;38.35;99795.31;5133746;27;19923;-54
2022/12/14 10:38:24;;;;;;;;;;;;;;;18.49;38.33;99801.66;5109841;27;20178;-55
2022/12/14 10:40:49;;;;;;;;;;;;;;;18.48;37.01;99798.06;5125830;27;20103;-46
2022/12/14 10:43:26;;;;;;;;;;;;;;;18.06;34.32;99801.81;5131241;27;19930;-54
2022/12/14 10:46:11;;;;;;;;;;;;;;;18.28;35.77;99792.91;5120577;27;20046;-55
2022/12/14 10:48:44;;;;;;;;;;;;;;;18.37;37.37;99791.09;5116180;27;19933;-54
2022/12/14 10:51:10;;;;;;;;;;;;;;;18.42;37.42;99793.75;5120057;27;20430;-55
2022/12/14 10:53:37;;;;;;;;;;;;;;;18.45;37.63;99789.59;5127298;27;20014;-54
2022/12/14 10:56:09;;;;;;;;;;;;;;;18.45;37.44;99793.16;5131844;27;19924;-54
2022/12/14 10:58:35;;;;;;;;;;;;;;;18.26;33.64;99786.88;5124508;27;19975;-52
2022/12/14 11:01:00;;;;;;;;;;;;;;;18.40;36.82;99787.75;5135557;27;19931;-50
2022/12/14 11:03:27;;;;;;;;;;;;;;;18.45;36.93;99790.41;5142351;27;19931;-50
2022/12/14 11:05:56;;;;;;;;;;;;;;;18.47;36.95;99782.63;5146927;27;20014;-52
2022/12/14 11:08:41;;;;;;;;;;;;;;;18.47;37.21;99774.38;5143749;27;20026;-51
2022/12/14 11:11:07;;;;;;;;;;;;;;;18.48;37.32;99772.41;5124650;27;20379;-53
2022/12/14 11:13:33;;;;;;;;;;;;;;;18.49;37.15;99771.31;5124931;27;20017;-51
2022/12/14 11:15:59;;;;;;;;;;;;;;;18.48;37.16;99770.50;5155949;27;19934;-52
2022/12/14 11:18:28;;;;;;;;;;;;;;;18.49;37.26;99768.56;5149137;27;19954;-53
2022/12/14 11:20:56;;;;;;;;;;;;;;;18.49;37.48;99763.88;5149914;27;20252;-52
2022/12/14 11:23:26;;;;;;;;;;;;;;;18.49;37.35;99769.38;5148256;27;19977;-51
2022/12/14 11:25:54;;;;;;;;;;;;;;;18.49;37.22;99772.13;5126085;27;20471;-51
2022/12/14 11:28:39;;;;;;;;;;;;;;;18.49;35.88;99774.91;5142129;27;20438;-50
2022/12/14 11:31:06;;;;;;;;;;;;;;;18.49;36.64;99774.91;5124112;27;19975;-51
2022/12/14 11:33:36;;;;;;;;;;;;;;;18.50;37.38;99779.28;5111676;27;19927;-49
2022/12/14 11:36:02;;;;;;;;;;;;;;;18.49;37.34;99779.59;5131155;27;19923;-52
2022/12/14 11:38:29;;;;;;;;;;;;;;;18.50;37.39;99784.78;5128859;27;20030;-51
2022/12/14 11:40:55;;;;;;;;;;;;;;;18.50;37.33;99770.19;5103977;27;20007;-51
2022/12/14 11:43:23;;;;;;;;;;;;;;;18.50;37.51;99767.44;5132534;27;19923;-53
2022/12/14 11:45:49;;;;;;;;;;;;;;;18.50;35.54;99765.50;5132436;27;19932;-53
2022/12/14 11:50:51;;;;;;;;;;;;;;;18.49;35.96;99765.81;5162191;27;20417;-53
2022/12/14 11:53:17;;;;;;;;;;;;;;;18.51;37.36;99774.56;5130219;27;19970;-51
2022/12/14 11:55:44;;;;;;;;;;;;;;;18.51;37.08;99777.34;5133118;27;20701;-50
2022/12/14 11:58:12;;;;;;;;;;;;;;;18.49;35.62;99785.91;5115459;27;20287;-53
2022/12/14 12:00:41;;;;;;;;;;;;;;;18.51;36.61;99785.59;5149630;27;20394;-52
2022/12/14 12:03:15;;;;;;;;;;;;;;;18.50;36.42;99781.22;5120870;27;19981;-51
2022/12/14 12:05:41;;;;;;;;;;;;;;;18.51;37.12;99778.16;5116454;27;19962;-52
2022/12/14 12:08:16;;;;;;;;;;;;;;;18.49;35.65;99774.91;5112100;27;19971;-50
2022/12/14 12:10:43;;;;;;;;;;;;;;;18.48;34.56;99778.78;5119215;27;19981;-53
2022/12/14 12:13:30;;;;;;;;;;;;;;;18.47;34.15;99779.88;5115698;27;19923;-52
2022/12/14 12:16:00;;;;;;;;;;;;;;;18.48;37.10;99787.06;5111069;28;19936;-52
2022/12/14 12:18:30;;;;;;;;;;;;;;;18.33;33.15;99789.25;5097499;27;20216;-52
2022/12/14 12:21:05;;;;;;;;;;;;;;;18.42;35.40;99788.25;5116493;27;19923;-52
2022/12/14 12:23:37;;;;;;;;;;;;;;;18.47;36.81;99790.91;5117661;27;20035;-51
2022/12/14 12:26:06;;;;;;;;;;;;;;;18.48;36.59;99784.28;5090640;28;20056;-51
2022/12/14 12:28:32;;;;;;;;;;;;;;;18.47;34.39;99798.34;5109299;27;20035;-52
2022/12/14 12:31:02;;;;;;;;;;;;;;;18.46;35.48;99791.22;5104118;27;19932;-50
2022/12/14 12:33:40;;;;;;;;;;;;;;;18.47;35.27;99790.09;5113380;27;19953;-52
2022/12/14 12:36:06;;;;;;;;;;;;;;;18.49;35.07;99787.88;5091231;27;19967;-51
2022/12/14 12:38:36;;;;;;;;;;;;;;;18.49;35.49;99794.19;5114212;27;19931;-52
2022/12/14 12:41:22;;;;;;;;;;;;;;;18.51;35.86;99785.59;5100281;28;19924;-52
2022/12/14 12:43:53;;;;;;;;;;;;;;;17.93;30.38;99788.81;5104299;28;20014;-46
2022/12/14 12:46:21;;;;;;;;;;;;;;;17.34;31.46;99790.19;5117854;27;19976;-57
2022/12/14 12:48:52;;;;;;;;;;;;;;;17.61;32.53;99784.03;5105336;27;19924;-50
2022/12/14 12:51:20;;;;;;;;;;;;;;;18.04;34.15;99784.75;5104835;27;19973;-50
2022/12/14 12:53:46;;;;;;;;;;;;;;;18.23;34.14;99773.72;5117604;27;19959;-50
2022/12/14 12:56:13;;;;;;;;;;;;;;;18.33;35.19;99784.56;5114116;27;19992;-50
2022/12/14 12:58:39;;;;;;;;;;;;;;;18.39;35.25;99779.75;5112981;27;20018;-49
2022/12/14 13:01:24;;;;;;;;;;;;;;;18.42;35.11;99790.19;5110093;28;20366;-52
2022/12/14 13:03:51;;;;;;;;;;;;;;;18.44;35.39;99790.72;5090836;28;20022;-54
2022/12/14 13:06:20;;;;;;;;;;;;;;;18.44;35.44;99802.56;5086721;28;19930;-50
2022/12/14 13:08:47;;;;;;;;;;;;;;;18.46;35.69;99799.50;5086777;28;20015;-51
2022/12/14 13:11:16;;;;;;;;;;;;;;;18.46;35.44;99800.31;5086887;28;19931;-49
2022/12/14 13:13:52;;;;;;;;;;;;;;;18.48;36.04;99806.34;5102059;28;20381;-48
2022/12/14 13:16:19;;;;;;;;;;;;;;;18.48;35.61;99797.22;5105047;28;19963;-51
2022/12/14 13:18:52;;;;;;;;;;;;;;;18.23;33.51;99796.56;5089476;28;20406;-52